x

Portland 12 Nm Southeast Of Portland,me (44007) Wave Buoy

12:50 - Tue 26th Sep 2017 All times are EDT. -4 hours from GMT.

  • Sig Wave height 3.6ft
  • Swell Direction
  • Peak Period 15s
  • Average Period 8s
  • Wind
    9mph, 9mph gusts
  • Sea Temp 63°f
  • Luft Temp 64°f
  • Sea Pressure 1016.2mb
  • Portland 12 Nm Southeast Of Portland,me
  • Portland 12 Nm Southeast Of Portland,me

More Historic Weather Station data

Upgrade to MSW Pro to gain access to the past 30 days of data for over 8000 Wavebouys and Weather Stations around the globe.

Join

Comparision Forecast

View Surf forecast
   
Di 09/26 12:50 3.5ft 15s 8s 9 9 mph 1016.2mb 63f 64f
11:50 4ft 15s 8s 4 4 mph 1016.6mb 62f 63f
10:50 4.5ft 15s 8s 9 9 mph 1016.7mb 62f 62f
9:50 4ft 15s 9s 13 16 mph 1016.8mb 62f 62f
8:50 3.5ft 14s 9s 4 7 mph 1017mb 62f 62f
7:50 4ft 15s 9s 2 4 mph 1016.6mb 62f 62f
6:50 3.5ft 15s 9s 4 7 mph 1016.7mb 62f 62f
5:50 4ft 14s 9s 4 4 mph 1016.7mb 62f 62f
4:50 4ft 14s 9s 9 11 mph 1016.4mb 62f 62f
3:50 3.5ft 15s 9s 7 9 mph 1016.5mb 63f 63f
2:50 3.5ft 14s 8s 7 9 mph 1016.6mb 63f 63f
1:50 3.5ft 14s 8s 9 9 mph 1017mb 63f 63f
12:50 3.5ft 14s 8s 9 9 mph 1017.4mb 63f 63f
Mo 09/25 11:50 3.5ft 15s 9s 9 11 mph 1017.5mb 62f 63f
10:50 3.5ft 15s 9s 7 9 mph 1017.8mb 63f 64f
9:50 3.5ft 15s 8s 4 7 mph 1018mb 64f 64f
8:50 3.5ft 11s 9s 7 7 mph 1018.2mb 64f 64f
7:50 3.5ft 11s 9s 2 4 mph 1018.2mb 64f 64f
6:50 4ft 15s 9s 4 4 mph 1017.9mb 64f 65f
5:50 3.5ft 12s 9s 4 7 mph 1017.7mb 65f 66f
4:50 3ft 11s 8s 4 4 mph 1017.7mb 65f 67f
3:50 3.5ft 12s 8s 7 9 mph 1017.6mb 66f 67f
2:50 3ft 11s 8s 4 7 mph 1018.1mb 66f 67f
1:50 3.5ft 12s 8s 2 4 mph 1018.5mb 66f 69f
12:50 3.5ft 11s 8s 2 4 mph 1018.8mb 65f 69f
11:50 3ft 12s 8s 2 2 mph 1018.9mb 63f 67f
10:50 3ft 11s 8s 4 7 mph 1019.1mb 63f 66f
9:50 3ft 13s 8s  -  2 mph 1019.3mb 62f 67f
8:50 3ft 11s 8s 2 4 mph 1018.7mb 62f 64f
7:50 3ft 10s 8s 2 4 mph 1018.4mb 62f 64f
6:50 2.5ft 11s 7s 2 4 mph 1017.9mb 62f 63f
5:50 3.5ft 13s 8s 4 4 mph 1017.2mb 62f 63f
4:50 3ft 13s 8s 4 4 mph 1016.8mb 62f 62f
3:50 2.5ft 13s 7s 4 4 mph 1016.4mb 62f 62f
2:50 2.5ft 11s 8s 2 2 mph 1016.4mb 62f 63f
1:50 2.5ft 15s 8s 7 7 mph 1016.6mb 62f 63f
12:50 3ft 11s 8s 7 7 mph 1016.6mb 61f 63f
So 09/24 11:50 3ft 10s 8s 4 9 mph 1016.9mb 61f 63f
10:50 3ft 11s 8s 4 7 mph 1016.9mb 61f 64f
9:50 3.5ft 11s 8s 4 7 mph 1016.7mb 62f 64f
8:50 3.5ft 11s 8s 7 9 mph 1016.5mb 62f 64f
7:50 3ft 11s 8s 2 4 mph 1016.5mb 63f 64f
6:50 3ft 12s 8s 7 7 mph 1015.9mb 63f 64f
5:50 3ft 12s 8s 7 9 mph 1015.7mb 63f 65f
4:50 3ft 11s 7s 9 9 mph 1015.5mb 63f 66f
3:50 3ft 12s 7s 9 9 mph 1015.7mb 63f 67f
2:50 3ft 12s 7s 9 9 mph 1016.1mb 63f 67f
1:50 3ft 7s 7s 7 9 mph 1016.2mb 64f 69f
12:50 3ft 8s 7s 4 4 mph 1016.7mb 63f 69f
11:50 3ft 8s 7s 2 2 mph 1017.3mb 62f 68f
10:50 3ft 7s 7s 2 4 mph 1017.7mb 61f 66f
9:50 3ft 10s 7s 4 7 mph 1017.6mb 60f 64f
8:50 3.5ft 10s 7s  -  2 mph 1017.8mb 60f 66f
7:50 3ft 12s 7s 2 2 mph 1017.7mb 60f 64f
6:50 3.5ft 10s 7s 2 2 mph 1017.5mb 60f 62f
5:50 3.5ft 11s 7s  -  2 mph 1016.9mb 60f 62f
4:50 3ft 13s 7s  -  2 mph 1016.6mb 60f 62f
3:50 3.5ft 13s 7s 4 4 mph 1016.2mb 60f 61f
2:50 3ft 14s 7s 2 2 mph 1015.9mb 60f 61f
1:50 3.5ft 7s 7s 4 4 mph 1016.1mb 60f 61f
12:50 3.5ft 8s 7s 7 7 mph 1016.1mb 59f 62f
Sa 09/23 11:50 3.5ft 7s 7s 7 9 mph 1016.3mb 59f 62f
10:50 3.5ft 8s 7s 7 7 mph 1016.4mb 59f 61f
9:50 4ft 8s 7s 7 7 mph 1016.5mb 60f 61f
8:50 4ft 8s 7s 7 9 mph 1016.3mb 60f 62f
7:50 4ft 10s 7s 7 7 mph 1016.4mb 61f 62f
6:50 4ft 10s 7s 7 9 mph 1016mb 62f 62f
5:50 4ft 10s 7s 4 7 mph 1015.8mb 62f 63f
4:50 4ft 9s 6s 4 7 mph 1015.8mb 62f 64f
3:50 3.5ft 8s 6s 9 9 mph 1015.6mb 63f 64f
2:50 4.5ft 8s 6s 7 7 mph 1015.9mb 63f 64f
1:50 4.5ft 8s 6s 7 7 mph 1016mb 63f 64f
12:50 4.5ft 8s 6s 4 4 mph 1016.4mb 62f 64f
11:50 5ft 8s 7s 4 4 mph 1016.7mb 61f 63f
10:50 5ft 9s 7s 7 7 mph 1017.2mb 60f 61f
9:50 5.5ft 9s 7s 9 9 mph 1017.2mb 59f 60f
8:50 6ft 8s 7s 9 11 mph 1017.3mb 59f 60f
7:50 5.5ft 9s 7s 9 11 mph 1016.7mb 59f 59f
6:50 5ft 9s 7s 9 11 mph 1016.5mb 59f 59f
5:50 5.5ft 9s 7s 9 11 mph 1016.3mb 59f 60f
4:50 4.5ft 9s 6s 9 11 mph 1016.3mb 59f 60f
3:50 5ft 10s 7s 9 9 mph 1016.4mb 60f 61f
2:50 5ft 8s 6s 7 9 mph 1016.8mb 60f 61f
1:50 5ft 8s 6s 9 9 mph 1017mb 60f 62f
12:50 6ft 9s 6s 9 11 mph 1016.7mb 60f 62f
Fr 09/22 11:50 6ft 9s 6s 7 9 mph 1017.3mb 59f 62f
10:50 7ft 9s 6s 9 11 mph 1017.5mb 59f 62f
9:50 7.5ft 9s 7s 13 16 mph 1017.4mb 59f 62f
8:50 8ft 10s 7s 16 18 mph 1017.5mb 58f 62f
7:50 8ft 9s 7s 18 20 mph 1017.5mb 58f 61f
6:50 8.5ft 10s 8s 13 16 mph 1017.3mb 59f 61f